Terminal Aerodrome Forecast
Issued by NWS Louisville, KY

Home | Current Version | Previous Version | Text Only | Print | Product List | Glossary On
Versions: 1 2 3 4 5 6 7 8 9 10 11 12 13 14 15
000
FTUS43 KLMK 211700
TAFBWG
TAF
KBWG 211723Z 2118/2218 20008KT P6SM SCT050 BKN150
     FM220100 20005KT P6SM VCSH BKN040
     FM221000 24004KT 4SM BR VCSH BKN010
     FM221400 30007KT P6SM BKN015=

USA.gov is the U.S. government's official web portal to all federal, state and local government web resources and services.